createdAt,value
2022-08-12T00:02:03.249Z,11.53
2022-08-12T00:04:58.203Z,10.95
2022-08-12T00:08:28.923Z,11.75
2022-08-12T00:11:47.536Z,11.85
2022-08-12T00:15:11.660Z,10.95
2022-08-12T00:18:37.818Z,11.68
2022-08-12T00:22:01.227Z,11.68
2022-08-12T00:26:05.409Z,10.93
2022-08-12T00:28:51.118Z,11.03
2022-08-12T00:32:35.325Z,11.80
2022-08-12T00:35:44.437Z,11.95
2022-08-12T00:39:09.474Z,12.18
2022-08-12T00:42:17.449Z,12.78
2022-08-12T00:45:22.986Z,12.25
2022-08-12T00:48:28.284Z,12.37
2022-08-12T00:51:38.358Z,11.20
2022-08-12T00:54:43.578Z,12.63
2022-08-12T00:57:50.769Z,11.80
2022-08-12T01:00:56.865Z,11.78
2022-08-12T01:04:20.152Z,12.10
2022-08-12T01:07:43.952Z,11.05
2022-08-12T01:11:11.085Z,11.25
2022-08-12T01:14:11.917Z,11.20
2022-08-12T01:17:17.619Z,10.43
2022-08-12T01:20:22.907Z,10.82
2022-08-12T01:23:40.875Z,10.10
2022-08-12T01:26:46.704Z,8.68
2022-08-12T01:29:58.490Z,9.23
2022-08-12T01:33:05.217Z,9.60
2022-08-12T01:36:13.518Z,10.23
2022-08-12T01:39:18.993Z,10.45
2022-08-12T01:42:18.351Z,13.13
2022-08-12T01:45:11.277Z,13.80
2022-08-12T01:48:41.136Z,11.20
2022-08-12T01:52:20.361Z,13.08
2022-08-12T01:54:56.061Z,13.93
2022-08-12T01:58:01.037Z,14.87
2022-08-12T02:01:18.372Z,13.15
2022-08-12T02:05:10.731Z,12.85
2022-08-12T02:09:11.329Z,13.10
2022-08-12T02:12:41.872Z,13.88
2022-08-12T02:16:18.615Z,13.98
2022-08-12T02:19:50.861Z,13.55
2022-08-12T02:22:58.241Z,13.15
2022-08-12T02:26:03.801Z,14.03
2022-08-12T02:29:09.271Z,14.23
2022-08-12T02:32:15.654Z,14.68
2022-08-12T02:35:27.098Z,14.15
2022-08-12T02:38:34.275Z,13.62
2022-08-12T02:41:40.060Z,13.43
2022-08-12T02:44:50.733Z,11.38
2022-08-12T02:47:59.688Z,11.95
2022-08-12T02:51:08.052Z,12.70
2022-08-12T02:54:16.426Z,11.73
2022-08-12T02:57:23.866Z,11.55
2022-08-12T03:00:29.557Z,11.05
2022-08-12T03:03:34.911Z,11.22
2022-08-12T03:06:42.817Z,11.48
2022-08-12T03:10:04.384Z,11.30
2022-08-12T03:13:01.442Z,12.00
2022-08-12T03:16:08.462Z,12.58
2022-08-12T03:19:13.741Z,12.47
2022-08-12T03:22:21.810Z,13.15
2022-08-12T03:25:41.134Z,13.48
2022-08-12T03:29:05.255Z,12.53
2022-08-12T03:32:35.915Z,12.47
2022-08-12T03:35:40.066Z,13.43
2022-08-12T03:38:30.566Z,12.45
2022-08-12T03:41:43.388Z,12.65
2022-08-12T03:45:22.994Z,11.75
2022-08-12T03:48:46.501Z,11.12
2022-08-12T03:52:10.259Z,13.32
2022-08-12T03:55:34.365Z,11.75
2022-08-12T03:58:58.528Z,13.32
2022-08-12T04:02:05.774Z,13.43
2022-08-12T04:05:11.433Z,12.35
2022-08-12T04:08:18.394Z,12.50
2022-08-12T04:11:46.951Z,11.35
2022-08-12T04:14:48.492Z,11.85
2022-08-12T04:18:07.398Z,12.85
2022-08-12T04:21:01.947Z,12.88
2022-08-12T04:24:07.566Z,12.33
2022-08-12T04:27:15.565Z,12.37
2022-08-12T04:30:32.529Z,12.00
2022-08-12T04:33:28.612Z,13.60
2022-08-12T04:36:33.412Z,13.38
2022-08-12T04:39:41.320Z,11.33
2022-08-12T04:42:48.191Z,13.00
2022-08-12T04:45:56.506Z,12.25
2022-08-12T04:49:02.699Z,13.22
2022-08-12T04:52:10.437Z,12.10
2022-08-12T04:55:18.590Z,12.73
2022-08-12T04:58:29.445Z,10.65
2022-08-12T05:01:33.671Z,12.20
2022-08-12T05:04:39.252Z,10.38
2022-08-12T05:07:47.821Z,10.72
2022-08-12T05:10:53.128Z,11.00
2022-08-12T05:13:59.002Z,10.80
2022-08-12T05:17:07.626Z,9.65
2022-08-12T05:20:14.500Z,8.93
2022-08-12T05:23:25.999Z,9.90
2022-08-12T05:26:32.411Z,9.93
2022-08-12T05:30:06.371Z,9.48
2022-08-12T05:32:45.467Z,10.35
2022-08-12T05:35:54.382Z,9.35
2022-08-12T05:39:04.454Z,10.30
2022-08-12T05:42:11.796Z,9.63
2022-08-12T05:45:11.142Z,8.80
2022-08-12T05:47:57.797Z,8.83
2022-08-12T05:50:51.273Z,7.75
2022-08-12T05:53:39.339Z,8.45
2022-08-12T05:56:34.324Z,8.75
2022-08-12T05:59:28.028Z,8.25
2022-08-12T06:02:33.466Z,7.95
2022-08-12T06:05:51.862Z,8.10
2022-08-12T06:08:50.691Z,8.83
2022-08-12T06:12:04.441Z,7.92
2022-08-12T06:15:05.203Z,7.30
2022-08-12T06:18:20.039Z,7.87
2022-08-12T06:21:27.992Z,7.22
2022-08-12T06:24:34.943Z,6.90
2022-08-12T06:27:40.632Z,7.65
2022-08-12T06:31:08.298Z,6.60
2022-08-12T06:33:59.668Z,6.53
2022-08-12T06:37:02.591Z,7.08
2022-08-12T06:40:08.744Z,7.20
2022-08-12T06:43:14.499Z,6.70
2022-08-12T06:46:13.385Z,6.17
2022-08-12T06:49:07.617Z,5.50
2022-08-12T06:52:14.651Z,6.08
2022-08-12T06:55:22.132Z,5.40
2022-08-12T06:58:28.377Z,5.83
2022-08-12T07:01:36.738Z,5.47
2022-08-12T07:04:43.947Z,4.90
2022-08-12T07:07:51.868Z,5.00
2022-08-12T07:11:09.059Z,5.40
2022-08-12T07:14:16.480Z,6.30
2022-08-12T07:17:22.768Z,5.42
2022-08-12T07:20:51.213Z,5.92
2022-08-12T07:23:35.479Z,6.08
2022-08-12T07:26:44.266Z,6.50
2022-08-12T07:30:02.655Z,6.10
2022-08-12T07:33:01.788Z,6.90
2022-08-12T07:36:06.726Z,7.40
2022-08-12T07:39:11.507Z,7.40
2022-08-12T07:42:17.988Z,6.83
2022-08-12T07:45:24.305Z,7.95
2022-08-12T07:48:29.604Z,7.90
2022-08-12T07:51:37.163Z,8.03
2022-08-12T07:54:43.628Z,8.43
2022-08-12T07:57:49.571Z,7.90
2022-08-12T08:00:56.774Z,8.05
2022-08-12T08:04:24.415Z,9.20
2022-08-12T08:07:29.386Z,9.03
2022-08-12T08:10:35.521Z,9.65
2022-08-12T08:13:43.219Z,8.95
2022-08-12T08:16:51.251Z,10.38
2022-08-12T08:20:03.894Z,10.28
2022-08-12T08:23:08.145Z,9.68
2022-08-12T08:26:13.492Z,10.03
2022-08-12T08:29:20.385Z,10.75
2022-08-12T08:32:26.226Z,10.98
2022-08-12T08:35:47.126Z,11.90
2022-08-12T08:38:40.289Z,11.05
2022-08-12T08:42:17.581Z,12.35
2022-08-12T08:45:14.124Z,11.40
2022-08-12T08:48:21.619Z,12.07
2022-08-12T08:51:28.850Z,11.75
2022-08-12T08:54:37.311Z,11.70
2022-08-12T08:57:44.735Z,10.82
2022-08-12T09:00:47.619Z,11.48
2022-08-12T09:05:09.714Z,11.50
2022-08-12T09:07:18.063Z,10.55
2022-08-12T09:10:23.417Z,11.08
2022-08-12T09:16:50.124Z,10.58
2022-08-12T09:19:58.332Z,10.38
2022-08-12T09:23:08.053Z,11.08
2022-08-12T09:26:09.780Z,11.22
2022-08-12T09:29:16.191Z,10.88
2022-08-12T09:32:56.237Z,10.72
2022-08-12T09:35:43.051Z,11.05
2022-08-12T09:38:58.933Z,10.60
2022-08-12T09:42:34.502Z,11.10
2022-08-12T09:46:06.281Z,10.08
2022-08-12T09:48:25.304Z,9.93
2022-08-12T09:54:42.995Z,10.58
2022-08-12T09:58:44.983Z,10.30
2022-08-12T10:00:54.367Z,9.68
2022-08-12T10:04:04.541Z,9.78
2022-08-12T10:07:06.937Z,10.68
2022-08-12T10:10:23.007Z,10.43
2022-08-12T10:13:40.160Z,10.10
2022-08-12T10:16:48.478Z,10.55
2022-08-12T10:19:51.790Z,9.48
2022-08-12T10:22:56.130Z,10.10
2022-08-12T10:26:37.569Z,10.68
2022-08-12T10:30:38.040Z,9.68
2022-08-12T10:32:58.021Z,10.68
2022-08-12T10:36:07.046Z,9.58
2022-08-12T10:40:01.780Z,10.43
2022-08-12T10:42:46.308Z,9.83
2022-08-12T10:45:49.911Z,10.25
2022-08-12T10:49:05.596Z,9.93
2022-08-12T10:52:34.361Z,10.55
2022-08-12T10:55:13.063Z,10.13
2022-08-12T10:58:28.086Z,9.53
2022-08-12T11:04:17.210Z,10.20
2022-08-12T11:04:44.849Z,9.15
2022-08-12T11:08:36.639Z,10.10
2022-08-12T11:10:54.519Z,9.73
2022-08-12T11:14:00.129Z,9.38
2022-08-12T11:17:34.090Z,9.20
2022-08-12T11:20:15.198Z,9.55
2022-08-12T11:23:35.764Z,9.98
2022-08-12T11:26:27.114Z,9.73
2022-08-12T11:30:01.441Z,10.53
2022-08-12T11:35:51.297Z,10.75
2022-08-12T11:38:58.119Z,10.23
2022-08-12T11:41:57.026Z,10.03
2022-08-12T11:45:05.084Z,10.60
2022-08-12T11:48:10.842Z,10.43
2022-08-12T11:51:17.930Z,9.65
2022-08-12T11:54:23.997Z,9.95
2022-08-12T11:58:19.670Z,9.48
2022-08-12T12:03:46.679Z,9.78
2022-08-12T12:06:53.423Z,8.63
2022-08-12T12:10:00.366Z,9.73
2022-08-12T12:13:11.627Z,10.15
2022-08-12T12:16:13.714Z,9.33
2022-08-12T12:19:20.545Z,9.55
2022-08-12T12:22:30.952Z,10.05
2022-08-12T12:25:59.216Z,9.93
2022-08-12T12:28:40.983Z,9.28
2022-08-12T12:32:11.814Z,9.28
2022-08-12T12:35:14.054Z,9.95
2022-08-12T12:38:12.379Z,10.15
2022-08-12T12:41:18.868Z,9.20
2022-08-12T12:44:25.786Z,9.45
2022-08-12T12:47:31.285Z,9.90
2022-08-12T12:50:45.279Z,9.73
2022-08-12T12:54:07.873Z,8.93
2022-08-12T12:56:56.416Z,9.85
2022-08-12T13:00:20.690Z,10.28
2022-08-12T13:03:29.937Z,9.05
2022-08-12T13:06:38.748Z,9.10
2022-08-12T13:09:46.796Z,9.45
2022-08-12T13:12:52.081Z,8.40
2022-08-12T13:15:59.411Z,8.83
2022-08-12T13:19:06.838Z,8.73
2022-08-12T13:22:26.265Z,9.73
2022-08-12T13:25:34.354Z,8.48
2022-08-12T13:32:19.398Z,9.60
2022-08-12T13:35:03.903Z,9.53
2022-08-12T13:38:08.941Z,8.90
2022-08-12T13:41:14.005Z,10.32
2022-08-12T13:44:22.839Z,9.03
2022-08-12T13:47:28.750Z,9.58
2022-08-12T13:50:43.659Z,9.43
2022-08-12T13:53:57.700Z,8.50
2022-08-12T13:56:58.125Z,9.33
2022-08-12T14:00:04.083Z,8.08
2022-08-12T14:03:11.964Z,7.80
2022-08-12T14:06:22.017Z,6.33
2022-08-12T14:09:29.562Z,6.40
2022-08-12T14:12:36.905Z,6.33
2022-08-12T14:15:44.381Z,5.92
2022-08-12T14:18:52.014Z,5.90
2022-08-12T14:22:04.662Z,5.58
2022-08-12T14:25:08.629Z,5.30
2022-08-12T14:28:25.570Z,5.78
2022-08-12T14:31:32.575Z,5.33
2022-08-12T14:34:40.655Z,5.53
2022-08-12T14:37:56.407Z,4.97
2022-08-12T14:40:57.705Z,4.28
2022-08-12T14:44:57.312Z,4.15
2022-08-12T14:47:12.672Z,4.67
2022-08-12T14:50:40.841Z,4.97
2022-08-12T15:00:00.644Z,4.75
2022-08-12T15:02:59.920Z,4.97
2022-08-12T15:06:06.636Z,4.47
2022-08-12T15:08:54.864Z,4.62
2022-08-12T15:12:04.537Z,5.28
2022-08-12T15:15:13.862Z,5.67
2022-08-12T15:18:24.385Z,5.95
2022-08-12T15:22:36.763Z,6.08
2022-08-12T15:24:43.868Z,5.70
2022-08-12T15:28:04.260Z,5.78
2022-08-12T15:31:01.377Z,6.72
2022-08-12T15:34:07.738Z,7.12
2022-08-12T15:37:17.225Z,6.70
2022-08-12T15:40:30.269Z,6.42
2022-08-12T15:44:17.002Z,6.22
2022-08-12T15:46:43.836Z,7.60
2022-08-12T15:49:59.506Z,7.53
2022-08-12T15:52:58.414Z,6.87
2022-08-12T15:56:05.463Z,6.70
2022-08-12T15:59:10.949Z,7.33
2022-08-12T16:02:20.423Z,7.03
2022-08-12T16:06:12.931Z,6.50
2022-08-12T16:08:37.298Z,6.60
2022-08-12T16:11:45.007Z,7.40
2022-08-12T16:14:51.266Z,7.25
2022-08-12T16:18:17.925Z,7.40
2022-08-12T16:21:09.075Z,8.15
2022-08-12T16:24:14.838Z,7.22
2022-08-12T16:27:21.440Z,7.05
2022-08-12T16:30:29.377Z,7.15
2022-08-12T16:33:35.741Z,7.70
2022-08-12T16:36:47.396Z,7.30
2022-08-12T16:40:01.720Z,8.70
2022-08-12T16:43:02.152Z,8.38
2022-08-12T16:46:05.567Z,7.37
2022-08-12T16:48:47.059Z,8.25
2022-08-12T16:52:00.098Z,8.55
2022-08-12T16:55:05.404Z,7.70
2022-08-12T16:58:28.546Z,8.25
2022-08-12T17:01:19.729Z,7.28
2022-08-12T17:04:28.241Z,7.60
2022-08-12T17:07:36.477Z,7.47
2022-08-12T17:10:41.536Z,8.60
2022-08-12T17:13:53.117Z,7.97
2022-08-12T17:16:59.577Z,7.90
2022-08-12T17:20:34.893Z,8.18
2022-08-12T17:23:23.652Z,7.90
2022-08-12T17:26:32.888Z,7.35
2022-08-12T17:30:01.943Z,7.87
2022-08-12T17:32:53.302Z,8.98
2022-08-12T17:35:57.902Z,7.60
2022-08-12T17:39:04.779Z,7.95
2022-08-12T17:42:32.891Z,7.60
2022-08-12T17:45:18.471Z,8.00
2022-08-12T17:48:26.267Z,7.17
2022-08-12T17:51:49.858Z,7.67
2022-08-12T17:54:45.323Z,7.90
2022-08-12T17:57:52.905Z,8.70
2022-08-12T18:01:01.044Z,7.72
2022-08-12T18:04:22.863Z,10.40
2022-08-12T18:07:21.279Z,7.35
2022-08-12T18:10:53.130Z,8.08
2022-08-12T18:13:59.606Z,8.00
2022-08-12T18:17:10.033Z,7.50
2022-08-12T18:20:19.485Z,7.10
2022-08-12T18:23:25.190Z,7.60
2022-08-12T18:26:34.941Z,8.25
2022-08-12T18:29:43.221Z,6.92
2022-08-12T18:32:58.854Z,7.47
2022-08-12T18:36:02.864Z,6.97
2022-08-12T18:39:19.519Z,7.53
2022-08-12T18:42:25.414Z,7.62
2022-08-12T18:45:46.862Z,8.35
2022-08-12T18:48:52.465Z,7.22
2022-08-12T18:52:02.263Z,7.83
2022-08-12T18:55:08.342Z,8.25
2022-08-12T18:58:25.467Z,7.72
2022-08-12T19:02:19.389Z,8.25
2022-08-12T19:04:45.574Z,7.70
2022-08-12T19:08:04.379Z,7.35
2022-08-12T19:11:30.880Z,7.47
2022-08-12T19:14:40.499Z,7.55
2022-08-12T19:18:01.157Z,7.90
2022-08-12T19:21:11.679Z,8.53
2022-08-12T19:24:29.354Z,7.87
2022-08-12T19:27:37.026Z,7.80
2022-08-12T19:31:05.703Z,9.00
2022-08-12T19:34:47.031Z,8.28
2022-08-12T19:37:18.947Z,8.05
2022-08-12T19:40:31.251Z,8.40
2022-08-12T19:43:59.520Z,8.60
2022-08-12T19:46:51.884Z,8.45
2022-08-12T19:50:05.529Z,8.98
2022-08-12T19:53:12.870Z,8.58
2022-08-12T19:56:20.459Z,8.93
2022-08-12T19:59:43.477Z,8.88
2022-08-12T20:02:44.299Z,8.98
2022-08-12T20:06:04.594Z,7.90
2022-08-12T20:09:04.028Z,8.60
2022-08-12T20:12:18.047Z,9.00
2022-08-12T20:15:21.871Z,9.35
2022-08-12T20:18:52.927Z,8.00
2022-08-12T20:21:40.613Z,8.88
2022-08-12T20:24:46.291Z,8.80
2022-08-12T20:28:03.045Z,9.70
2022-08-12T20:30:59.388Z,8.10
2022-08-12T20:33:50.679Z,8.13
2022-08-12T20:36:57.320Z,8.88
2022-08-12T20:40:05.354Z,8.83
2022-08-12T20:43:12.822Z,8.40
2022-08-12T20:46:20.191Z,7.70
2022-08-12T20:49:25.101Z,8.40
2022-08-12T20:52:34.242Z,7.83
2022-08-12T20:55:56.583Z,8.65
2022-08-12T20:58:50.845Z,8.93
2022-08-12T21:01:56.876Z,8.35
2022-08-12T21:05:23.112Z,8.15
2022-08-12T21:08:28.685Z,7.22
2022-08-12T21:11:33.856Z,8.53
2022-08-12T21:14:53.447Z,8.10
2022-08-12T21:20:59.441Z,9.08
2022-08-12T21:24:05.043Z,8.30
2022-08-12T21:27:11.636Z,8.68
2022-08-12T21:30:20.478Z,8.90
2022-08-12T21:33:30.797Z,7.40
2022-08-12T21:36:35.257Z,7.83
2022-08-12T21:39:41.317Z,8.65
2022-08-12T21:42:49.060Z,9.00
2022-08-12T21:46:01.657Z,9.23
2022-08-12T21:49:04.802Z,7.92
2022-08-12T21:52:10.892Z,7.95
2022-08-12T21:55:19.009Z,8.68
2022-08-12T21:58:27.820Z,9.13
2022-08-12T22:01:35.830Z,8.50
2022-08-12T22:04:52.706Z,7.30
2022-08-12T22:07:58.426Z,7.75
2022-08-12T22:11:04.300Z,9.18
2022-08-12T22:14:21.383Z,9.40
2022-08-12T22:17:21.592Z,8.40
2022-08-12T22:20:31.093Z,8.60
2022-08-12T22:24:04.135Z,8.40
2022-08-12T22:26:43.296Z,8.25
2022-08-12T22:30:06.910Z,8.75
2022-08-12T22:33:18.137Z,8.48
2022-08-12T22:36:29.076Z,8.73
2022-08-12T22:39:32.327Z,8.65
2022-08-12T22:42:40.519Z,7.62
2022-08-12T22:46:05.494Z,8.28
2022-08-12T22:49:10.960Z,8.25
2022-08-12T22:52:22.916Z,7.87
2022-08-12T22:56:00.522Z,8.25
2022-08-12T22:58:40.746Z,8.75
2022-08-12T23:02:01.453Z,8.48
2022-08-12T23:04:57.424Z,8.55
2022-08-12T23:08:04.317Z,8.28
2022-08-12T23:11:09.206Z,8.43
2022-08-12T23:14:10.607Z,8.68
2022-08-12T23:17:21.450Z,8.88
2022-08-12T23:20:19.762Z,8.73
2022-08-12T23:23:27.415Z,7.67
2022-08-12T23:26:52.227Z,7.42
2022-08-12T23:30:16.664Z,8.40
2022-08-12T23:33:13.416Z,7.20
2022-08-12T23:36:13.307Z,8.08
2022-08-12T23:40:13.158Z,7.87
2022-08-12T23:42:31.029Z,8.28
2022-08-12T23:45:34.685Z,8.23
2022-08-12T23:48:40.991Z,8.20
2022-08-12T23:51:49.628Z,8.05
2022-08-12T23:54:58.053Z,8.05
2022-08-12T23:58:21.413Z,8.15
